Time;durP1;ratioP1;P1;durP2;ratioP2;P2;SDS_P1;SDS_P2;PMS_P1;PMS_P2;Temp;Humidity;BMP_temperature;BMP_pressure;BME280_temperature;BME280_humidity;BME280_pressure;Samples;Min_cycle;Max_cycle;Signal;HPM_P1;HPM_P2
2023/12/02 00:00:58;;;;;;;21.23;10.83;;;;;;;;;;5085088;28;20457;-78
2023/12/02 00:03:26;;;;;;;26.20;12.37;;;;;;;;;;5083764;28;20453;-78
2023/12/02 00:05:53;;;;;;;23.23;12.07;;;;;;;;;;5080807;28;20449;-78
2023/12/02 00:08:24;;;;;;;25.40;11.77;;;;;;;;;;5081927;28;20861;-79
2023/12/02 00:10:52;;;;;;;19.50;11.20;;;;;;;;;;5082618;28;20458;-78
2023/12/02 00:13:19;;;;;;;24.97;12.83;;;;;;;;;;5084238;28;20805;-79
2023/12/02 00:15:47;;;;;;;25.07;12.63;;;;;;;;;;5082267;28;20489;-79
2023/12/02 00:18:16;;;;;;;21.90;11.53;;;;;;;;;;5083243;28;20467;-80
2023/12/02 00:20:44;;;;;;;24.83;12.00;;;;;;;;;;5081807;28;20450;-77
2023/12/02 00:23:12;;;;;;;20.40;12.23;;;;;;;;;;5079215;28;20482;-79
2023/12/02 00:25:39;;;;;;;24.53;12.20;;;;;;;;;;5080562;28;20460;-80
2023/12/02 00:28:08;;;;;;;24.00;12.37;;;;;;;;;;5078458;28;20719;-79
2023/12/02 00:30:35;;;;;;;19.67;10.57;;;;;;;;;;5080662;28;20483;-79
2023/12/02 00:33:03;;;;;;;18.50;10.60;;;;;;;;;;5077929;28;20459;-78
2023/12/02 00:35:32;;;;;;;27.43;14.67;;;;;;;;;;5080904;28;20473;-79
2023/12/02 00:38:00;;;;;;;24.33;13.00;;;;;;;;;;5078359;28;20522;-79
2023/12/02 00:40:27;;;;;;;23.77;13.60;;;;;;;;;;5082081;28;20461;-79
2023/12/02 00:42:55;;;;;;;27.90;13.57;;;;;;;;;;5078890;28;20916;-78
2023/12/02 00:45:23;;;;;;;21.77;11.30;;;;;;;;;;5082026;28;20515;-80
2023/12/02 00:47:50;;;;;;;22.43;11.47;;;;;;;;;;5082221;28;20450;-79
2023/12/02 00:50:18;;;;;;;25.87;10.00;;;;;;;;;;5088331;28;20454;-79
2023/12/02 00:52:54;;;;;;;25.63;14.00;;;;;;;;;;5086868;28;20496;-80
2023/12/02 00:55:21;;;;;;;26.70;13.50;;;;;;;;;;5084568;28;20492;-80
2023/12/02 00:57:49;;;;;;;28.80;13.00;;;;;;;;;;5086548;28;20545;-77
2023/12/02 01:00:17;;;;;;;21.97;11.10;;;;;;;;;;5087635;28;20458;-79
2023/12/02 01:02:45;;;;;;;24.20;12.20;;;;;;;;;;5085463;28;20510;-79
2023/12/02 01:05:13;;;;;;;22.87;12.13;;;;;;;;;;5086439;28;20446;-79
2023/12/02 01:07:41;;;;;;;22.63;11.60;;;;;;;;;;5087168;28;20468;-78
2023/12/02 01:10:12;;;;;;;24.47;11.70;;;;;;;;;;5084880;28;20461;-79
2023/12/02 01:12:42;;;;;;;25.07;11.90;;;;;;;;;;5086627;28;20484;-78
2023/12/02 01:15:10;;;;;;;24.63;13.53;;;;;;;;;;5085913;28;20486;-79
2023/12/02 01:17:38;;;;;;;27.23;12.70;;;;;;;;;;5087954;28;20453;-78
2023/12/02 01:20:14;;;;;;;26.37;13.83;;;;;;;;;;5085392;28;20462;-78
2023/12/02 01:22:42;;;;;;;23.40;13.23;;;;;;;;;;5083255;28;20450;-79
2023/12/02 01:25:11;;;;;;;27.90;13.23;;;;;;;;;;5085347;28;20701;-79
2023/12/02 01:27:39;;;;;;;24.40;12.17;;;;;;;;;;5085403;28;20490;-79
2023/12/02 01:30:08;;;;;;;26.27;13.03;;;;;;;;;;5088451;28;20609;-80
2023/12/02 01:32:36;;;;;;;25.70;12.53;;;;;;;;;;5085766;28;20454;-79
2023/12/02 01:35:03;;;;;;;24.40;13.00;;;;;;;;;;5085927;28;20674;-78
2023/12/02 01:37:31;;;;;;;25.53;13.67;;;;;;;;;;5083144;28;20878;-77
2023/12/02 01:39:58;;;;;;;25.33;13.80;;;;;;;;;;5080677;28;20463;-79
2023/12/02 01:42:28;;;;;;;23.33;12.67;;;;;;;;;;5078856;28;20489;-78
2023/12/02 01:44:56;;;;;;;24.90;13.33;;;;;;;;;;5077474;28;20469;-80
2023/12/02 01:47:24;;;;;;;24.27;12.90;;;;;;;;;;5080526;28;20482;-79
2023/12/02 01:49:52;;;;;;;26.47;14.37;;;;;;;;;;5080053;28;21041;-80
2023/12/02 01:52:20;;;;;;;25.90;13.00;;;;;;;;;;5078006;28;20449;-79
2023/12/02 01:54:48;;;;;;;23.47;11.57;;;;;;;;;;5080992;28;20454;-80
2023/12/02 01:57:16;;;;;;;23.97;11.93;;;;;;;;;;5080409;28;20601;-78
2023/12/02 01:59:46;;;;;;;22.80;12.13;;;;;;;;;;5080868;28;20453;-78
2023/12/02 02:02:17;;;;;;;28.20;13.17;;;;;;;;;;5083593;28;20449;-78
2023/12/02 02:04:44;;;;;;;31.30;13.53;;;;;;;;;;5082093;28;20479;-78
2023/12/02 02:07:12;;;;;;;22.07;11.40;;;;;;;;;;5080222;28;20453;-77
2023/12/02 02:09:46;;;;;;;25.70;13.20;;;;;;;;;;5079793;28;20453;-79
2023/12/02 02:12:14;;;;;;;25.63;13.40;;;;;;;;;;5078449;28;20479;-79
2023/12/02 02:14:42;;;;;;;25.03;13.70;;;;;;;;;;5079030;28;20453;-78
2023/12/02 02:17:11;;;;;;;28.63;14.47;;;;;;;;;;5081001;28;20728;-78
2023/12/02 02:19:39;;;;;;;18.27;12.30;;;;;;;;;;5079669;28;20446;-80
2023/12/02 02:22:08;;;;;;;20.33;9.40;;;;;;;;;;5080319;28;20548;-79
2023/12/02 02:24:36;;;;;;;23.70;12.77;;;;;;;;;;5078633;28;20527;-79
2023/12/02 02:27:03;;;;;;;30.63;13.30;;;;;;;;;;5080927;28;20458;-79
2023/12/02 02:29:31;;;;;;;22.50;11.60;;;;;;;;;;5080834;28;20541;-78
2023/12/02 02:31:58;;;;;;;25.40;13.03;;;;;;;;;;5086197;28;20457;-78
2023/12/02 02:34:27;;;;;;;28.00;13.70;;;;;;;;;;5083949;28;20508;-77
2023/12/02 02:36:55;;;;;;;27.77;13.80;;;;;;;;;;5079571;28;20889;-77
2023/12/02 02:39:24;;;;;;;21.80;11.40;;;;;;;;;;5079970;28;20504;-78
2023/12/02 02:41:54;;;;;;;24.43;13.20;;;;;;;;;;5079557;28;20485;-79
2023/12/02 02:44:22;;;;;;;24.63;12.97;;;;;;;;;;5082322;28;20438;-78
2023/12/02 02:46:49;;;;;;;24.20;11.73;;;;;;;;;;5082357;28;20453;-78
2023/12/02 02:49:17;;;;;;;26.60;13.47;;;;;;;;;;5084572;28;20454;-80
2023/12/02 02:51:44;;;;;;;21.80;11.73;;;;;;;;;;5081030;28;20462;-78
2023/12/02 02:54:13;;;;;;;25.97;12.60;;;;;;;;;;5080001;28;20458;-80
2023/12/02 02:56:42;;;;;;;24.13;12.73;;;;;;;;;;5078910;28;20474;-79
2023/12/02 02:59:09;;;;;;;23.63;12.33;;;;;;;;;;5080519;28;20900;-78
2023/12/02 03:01:38;;;;;;;25.80;13.53;;;;;;;;;;5080280;28;20473;-79
2023/12/02 03:04:05;;;;;;;25.50;13.90;;;;;;;;;;5082201;28;20513;-78
2023/12/02 03:06:33;;;;;;;26.40;14.00;;;;;;;;;;5078557;28;20484;-79
2023/12/02 03:09:00;;;;;;;25.97;13.73;;;;;;;;;;5080101;28;20454;-79
2023/12/02 03:11:28;;;;;;;25.40;11.47;;;;;;;;;;5079964;28;20453;-79
2023/12/02 03:13:57;;;;;;;24.23;12.93;;;;;;;;;;5078209;28;20637;-80
2023/12/02 03:16:28;;;;;;;23.50;12.10;;;;;;;;;;5077273;28;20485;-78
2023/12/02 03:18:55;;;;;;;20.07;10.40;;;;;;;;;;5082616;28;20518;-77
2023/12/02 03:21:23;;;;;;;20.97;10.87;;;;;;;;;;5082927;28;20798;-78
2023/12/02 03:23:51;;;;;;;21.57;11.70;;;;;;;;;;5083778;28;20520;-78
2023/12/02 03:26:18;;;;;;;22.67;12.80;;;;;;;;;;5085315;28;20453;-78
2023/12/02 03:28:46;;;;;;;27.30;13.90;;;;;;;;;;5089133;28;20477;-79
2023/12/02 03:31:15;;;;;;;22.47;12.60;;;;;;;;;;5084985;28;20454;-79
2023/12/02 03:33:43;;;;;;;23.27;12.40;;;;;;;;;;5082982;28;20489;-80
2023/12/02 03:36:11;;;;;;;24.30;12.80;;;;;;;;;;5082030;28;20955;-79
2023/12/02 03:38:40;;;;;;;34.13;14.30;;;;;;;;;;5082600;28;20454;-79
2023/12/02 03:41:09;;;;;;;28.30;14.53;;;;;;;;;;5079780;28;21040;-80
2023/12/02 03:43:37;;;;;;;28.00;13.67;;;;;;;;;;5082083;28;20461;-80
2023/12/02 03:46:05;;;;;;;28.67;15.40;;;;;;;;;;5085686;28;20500;-79
2023/12/02 03:48:34;;;;;;;27.80;13.67;;;;;;;;;;5087292;28;20434;-78
2023/12/02 03:51:01;;;;;;;31.70;16.03;;;;;;;;;;5084566;28;20549;-79
2023/12/02 03:53:30;;;;;;;23.37;14.10;;;;;;;;;;5083785;28;20453;-79
2023/12/02 03:55:58;;;;;;;28.83;16.47;;;;;;;;;;5088391;28;20572;-79
2023/12/02 03:58:27;;;;;;;26.47;13.80;;;;;;;;;;5085291;28;20458;-80
2023/12/02 04:00:55;;;;;;;27.90;13.83;;;;;;;;;;5083759;28;20468;-79
2023/12/02 04:03:27;;;;;;;27.97;14.53;;;;;;;;;;5084367;28;20449;-79
2023/12/02 04:05:56;;;;;;;29.33;14.83;;;;;;;;;;5085906;28;20528;-79
2023/12/02 04:08:31;;;;;;;27.77;13.60;;;;;;;;;;5084794;28;20849;-78
2023/12/02 04:10:59;;;;;;;30.20;14.00;;;;;;;;;;5081586;28;20457;-77
2023/12/02 04:13:27;;;;;;;27.37;12.63;;;;;;;;;;5083208;28;20457;-79
2023/12/02 04:15:54;;;;;;;32.10;14.73;;;;;;;;;;5084603;28;20892;-78
2023/12/02 04:18:25;;;;;;;31.63;14.67;;;;;;;;;;5084807;28;20446;-78
2023/12/02 04:20:53;;;;;;;25.20;13.03;;;;;;;;;;5084700;28;20461;-78
2023/12/02 04:23:22;;;;;;;28.10;13.03;;;;;;;;;;5081963;28;20834;-79
2023/12/02 04:25:50;;;;;;;27.93;14.77;;;;;;;;;;5085033;28;20462;-77
2023/12/02 04:28:18;;;;;;;25.03;13.60;;;;;;;;;;5083716;28;20462;-78
2023/12/02 04:30:45;;;;;;;30.90;14.60;;;;;;;;;;5083667;28;20657;-78
2023/12/02 04:33:23;;;;;;;29.93;14.00;;;;;;;;;;5086951;28;20447;-78
2023/12/02 04:35:51;;;;;;;25.67;13.60;;;;;;;;;;5085772;28;20537;-77
2023/12/02 04:38:26;;;;;;;24.73;14.17;;;;;;;;;;5086944;28;20908;-77
2023/12/02 04:40:55;;;;;;;27.90;14.27;;;;;;;;;;5084672;28;20452;-80
2023/12/02 04:43:23;;;;;;;25.77;13.00;;;;;;;;;;5083311;28;20495;-79
2023/12/02 04:45:50;;;;;;;26.37;14.37;;;;;;;;;;5082879;28;20453;-80
2023/12/02 04:48:18;;;;;;;28.73;13.57;;;;;;;;;;5084514;28;20481;-79
2023/12/02 04:50:46;;;;;;;28.37;15.67;;;;;;;;;;5084310;28;21002;-79
2023/12/02 04:53:13;;;;;;;25.63;13.07;;;;;;;;;;5085339;28;20485;-79
2023/12/02 04:55:41;;;;;;;27.37;13.83;;;;;;;;;;5083420;28;20458;-78
2023/12/02 04:58:16;;;;;;;28.30;13.87;;;;;;;;;;5084518;28;20489;-78
2023/12/02 05:00:44;;;;;;;26.07;14.10;;;;;;;;;;5084327;28;20457;-78
2023/12/02 05:03:18;;;;;;;25.47;12.63;;;;;;;;;;5083106;28;20446;-78
2023/12/02 05:05:45;;;;;;;23.67;13.00;;;;;;;;;;5084866;28;20458;-80
2023/12/02 05:08:16;;;;;;;28.33;12.77;;;;;;;;;;5083677;28;20450;-79
2023/12/02 05:10:44;;;;;;;26.47;13.60;;;;;;;;;;5086124;28;20461;-79
2023/12/02 05:13:14;;;;;;;26.20;13.00;;;;;;;;;;5084921;28;20728;-78
2023/12/02 05:15:42;;;;;;;21.43;12.57;;;;;;;;;;5085242;28;20446;-77
2023/12/02 05:18:15;;;;;;;24.47;13.20;;;;;;;;;;5081794;28;20495;-77
2023/12/02 05:20:42;;;;;;;23.30;12.00;;;;;;;;;;5079187;28;20520;-78
2023/12/02 05:23:10;;;;;;;31.00;14.50;;;;;;;;;;5081234;28;20493;-79
2023/12/02 05:25:38;;;;;;;32.23;14.20;;;;;;;;;;5081100;28;21058;-78
2023/12/02 05:28:07;;;;;;;25.53;12.00;;;;;;;;;;5084496;28;20881;-80
2023/12/02 05:30:36;;;;;;;30.80;14.47;;;;;;;;;;5082574;28;20802;-78
2023/12/02 05:33:04;;;;;;;21.07;11.03;;;;;;;;;;5083152;28;20457;-80
2023/12/02 05:35:32;;;;;;;25.77;12.33;;;;;;;;;;5084145;28;20465;-79
2023/12/02 05:38:00;;;;;;;25.70;13.90;;;;;;;;;;5081830;28;20548;-79
2023/12/02 05:40:28;;;;;;;24.87;13.17;;;;;;;;;;5081543;28;20489;-79
2023/12/02 05:42:55;;;;;;;28.80;13.07;;;;;;;;;;5079318;28;20520;-80
2023/12/02 05:45:23;;;;;;;39.50;20.67;;;;;;;;;;5080866;28;20446;-80
2023/12/02 05:47:52;;;;;;;27.10;14.70;;;;;;;;;;5079569;28;20460;-79
2023/12/02 05:50:20;;;;;;;27.53;14.87;;;;;;;;;;5082410;28;20457;-77
2023/12/02 05:52:47;;;;;;;25.87;12.77;;;;;;;;;;5082005;28;20450;-79
2023/12/02 05:55:15;;;;;;;30.43;14.90;;;;;;;;;;5082982;28;20499;-78
2023/12/02 05:57:45;;;;;;;31.23;14.30;;;;;;;;;;5082722;28;20631;-77
2023/12/02 06:00:16;;;;;;;32.80;15.20;;;;;;;;;;5084273;28;20900;-78
2023/12/02 06:02:47;;;;;;;30.07;14.50;;;;;;;;;;5083338;28;20685;-78
2023/12/02 06:05:16;;;;;;;32.70;15.40;;;;;;;;;;5081595;28;20465;-79
2023/12/02 06:07:44;;;;;;;30.47;14.60;;;;;;;;;;5083132;28;20476;-80
2023/12/02 06:10:11;;;;;;;24.20;12.90;;;;;;;;;;5082973;28;20742;-79
2023/12/02 06:12:40;;;;;;;27.57;14.17;;;;;;;;;;5083715;28;20448;-80
2023/12/02 06:15:10;;;;;;;31.73;15.00;;;;;;;;;;5079385;28;20484;-79
2023/12/02 06:17:38;;;;;;;29.90;15.47;;;;;;;;;;5080657;28;20499;-80
2023/12/02 06:20:09;;;;;;;26.97;12.93;;;;;;;;;;5079688;28;20442;-79
2023/12/02 06:22:41;;;;;;;33.17;15.83;;;;;;;;;;5082272;28;20518;-79
2023/12/02 06:25:09;;;;;;;27.67;14.00;;;;;;;;;;5078706;28;20464;-80
2023/12/02 06:27:38;;;;;;;28.57;13.60;;;;;;;;;;5080494;28;20515;-79
2023/12/02 06:30:09;;;;;;;27.77;14.93;;;;;;;;;;5083132;28;20838;-79
2023/12/02 06:32:36;;;;;;;28.50;12.80;;;;;;;;;;5082707;28;20453;-78
2023/12/02 06:35:08;;;;;;;21.90;12.37;;;;;;;;;;5082254;28;20457;-78
2023/12/02 06:37:35;;;;;;;28.93;13.43;;;;;;;;;;5082298;28;20551;-78
2023/12/02 06:40:09;;;;;;;27.30;14.30;;;;;;;;;;5084420;28;20904;-79
2023/12/02 06:42:37;;;;;;;29.77;14.47;;;;;;;;;;5084826;28;20481;-79
2023/12/02 06:45:05;;;;;;;27.77;15.20;;;;;;;;;;5085645;28;20469;-79
2023/12/02 06:47:33;;;;;;;31.53;15.70;;;;;;;;;;5081768;28;20465;-78
2023/12/02 06:50:01;;;;;;;34.07;16.77;;;;;;;;;;5081033;28;20460;-80
2023/12/02 06:52:29;;;;;;;35.17;15.00;;;;;;;;;;5079172;28;20883;-80
2023/12/02 06:54:56;;;;;;;29.50;15.10;;;;;;;;;;5079064;28;20453;-79
2023/12/02 06:57:25;;;;;;;32.13;15.40;;;;;;;;;;5078096;28;20548;-79
2023/12/02 06:59:53;;;;;;;31.60;15.27;;;;;;;;;;5077169;28;20834;-80
2023/12/02 07:02:21;;;;;;;31.13;14.80;;;;;;;;;;5077244;28;20608;-80
2023/12/02 07:04:49;;;;;;;31.00;14.13;;;;;;;;;;5079500;28;20758;-79
2023/12/02 07:07:17;;;;;;;32.73;15.40;;;;;;;;;;5079665;28;20493;-78
2023/12/02 07:09:45;;;;;;;29.10;13.17;;;;;;;;;;5082003;28;20466;-80
2023/12/02 07:12:13;;;;;;;26.53;12.90;;;;;;;;;;5079127;28;20454;-78
2023/12/02 07:14:42;;;;;;;28.40;14.30;;;;;;;;;;5075927;28;20505;-77
2023/12/02 07:17:09;;;;;;;28.63;13.90;;;;;;;;;;5076796;28;20929;-77
2023/12/02 07:19:37;;;;;;;35.00;16.93;;;;;;;;;;5076735;28;20500;-79
2023/12/02 07:22:05;;;;;;;33.80;16.00;;;;;;;;;;5073103;28;20477;-79
2023/12/02 07:24:33;;;;;;;29.17;15.20;;;;;;;;;;5079513;28;20465;-79
2023/12/02 07:27:00;;;;;;;36.50;14.43;;;;;;;;;;5080865;28;20442;-79
2023/12/02 07:29:29;;;;;;;33.30;16.87;;;;;;;;;;5078990;28;20706;-79
2023/12/02 07:31:59;;;;;;;30.80;17.10;;;;;;;;;;5069975;28;20891;-79
2023/12/02 07:34:26;;;;;;;34.63;17.27;;;;;;;;;;5074901;28;21116;-78
2023/12/02 07:36:54;;;;;;;32.43;14.23;;;;;;;;;;5074863;28;20465;-79
2023/12/02 07:39:22;;;;;;;33.80;15.27;;;;;;;;;;5072067;28;20472;-78
2023/12/02 07:41:50;;;;;;;31.20;15.60;;;;;;;;;;5075726;28;20486;-79
2023/12/02 07:44:18;;;;;;;33.23;18.00;;;;;;;;;;5073636;28;20538;-80
2023/12/02 07:46:46;;;;;;;30.83;16.80;;;;;;;;;;5071416;28;20466;-80
2023/12/02 07:49:15;;;;;;;34.77;19.53;;;;;;;;;;5074644;28;20450;-79
2023/12/02 07:51:43;;;;;;;33.20;15.80;;;;;;;;;;5074348;28;20469;-79
2023/12/02 07:54:10;;;;;;;31.27;16.57;;;;;;;;;;5074253;28;20496;-78
2023/12/02 07:56:39;;;;;;;30.00;16.07;;;;;;;;;;5076589;28;20461;-77
2023/12/02 07:59:08;;;;;;;28.63;15.20;;;;;;;;;;5078271;28;20555;-77
2023/12/02 08:01:36;;;;;;;25.90;14.10;;;;;;;;;;5078268;28;20473;-79
2023/12/02 08:04:04;;;;;;;30.80;16.00;;;;;;;;;;5086188;28;20445;-78
2023/12/02 08:06:33;;;;;;;37.07;15.13;;;;;;;;;;5103053;28;20484;-78
2023/12/02 08:09:01;;;;;;;32.60;15.93;;;;;;;;;;5101195;28;20468;-79
2023/12/02 08:11:29;;;;;;;28.20;15.77;;;;;;;;;;5101023;28;20499;-79
2023/12/02 08:13:56;;;;;;;29.67;14.90;;;;;;;;;;5098597;28;20471;-79
2023/12/02 08:16:24;;;;;;;31.27;16.47;;;;;;;;;;5099065;28;20449;-79
2023/12/02 08:18:51;;;;;;;39.40;19.93;;;;;;;;;;5100048;28;20513;-79
2023/12/02 08:21:19;;;;;;;29.67;15.80;;;;;;;;;;5102765;28;20453;-79
2023/12/02 08:23:49;;;;;;;35.30;17.40;;;;;;;;;;5101476;28;20461;-79
2023/12/02 08:26:16;;;;;;;33.80;16.63;;;;;;;;;;5101820;28;20464;-78
2023/12/02 08:28:46;;;;;;;23.27;13.63;;;;;;;;;;5104533;28;20508;-78
2023/12/02 08:31:27;;;;;;;38.37;16.10;;;;;;;;;;5107114;28;20479;-79
2023/12/02 08:33:55;;;;;;;23.67;13.20;;;;;;;;;;5106576;28;20627;-78
2023/12/02 08:36:22;;;;;;;31.67;15.10;;;;;;;;;;5103038;28;20463;-79
2023/12/02 08:38:52;;;;;;;33.60;15.70;;;;;;;;;;5102258;28;20480;-79
2023/12/02 08:41:19;;;;;;;29.90;16.67;;;;;;;;;;5077288;28;20469;-78
2023/12/02 08:43:47;;;;;;;34.77;15.10;;;;;;;;;;5061898;28;20862;-78
2023/12/02 08:46:16;;;;;;;32.47;16.30;;;;;;;;;;5060264;28;20890;-80
2023/12/02 08:48:44;;;;;;;30.73;16.50;;;;;;;;;;5061688;28;20491;-78
2023/12/02 08:51:11;;;;;;;27.10;14.97;;;;;;;;;;5082529;28;20756;-78
2023/12/02 08:53:46;;;;;;;26.03;13.37;;;;;;;;;;5084119;28;20482;-78
2023/12/02 08:56:20;;;;;;;30.73;15.47;;;;;;;;;;5082786;28;20449;-78
2023/12/02 08:58:49;;;;;;;29.53;13.83;;;;;;;;;;5083874;28;20759;-79
2023/12/02 09:01:20;;;;;;;32.33;17.43;;;;;;;;;;5084009;28;20651;-77
2023/12/02 09:03:48;;;;;;;37.27;18.23;;;;;;;;;;5086474;28;20466;-78
2023/12/02 09:06:16;;;;;;;25.17;13.60;;;;;;;;;;5084772;28;20458;-78
2023/12/02 09:08:45;;;;;;;25.33;13.97;;;;;;;;;;5083213;28;20470;-78
2023/12/02 09:11:13;;;;;;;29.57;15.47;;;;;;;;;;5084540;28;20477;-79
2023/12/02 09:13:47;;;;;;;26.83;15.80;;;;;;;;;;5075293;28;21136;-77
2023/12/02 09:16:23;;;;;;;29.23;15.93;;;;;;;;;;5082777;28;20458;-78
2023/12/02 09:18:51;;;;;;;29.80;15.00;;;;;;;;;;5086419;28;20485;-78
2023/12/02 09:21:42;;;;;;;32.17;16.30;;;;;;;;;;5081565;28;20467;-79
2023/12/02 09:24:29;;;;;;;29.23;16.00;;;;;;;;;;5074487;28;20481;-78
2023/12/02 09:26:57;;;;;;;27.83;15.23;;;;;;;;;;5081769;28;20475;-79
2023/12/02 09:29:29;;;;;;;26.53;15.30;;;;;;;;;;5084230;28;20450;-78
2023/12/02 09:31:56;;;;;;;24.97;14.73;;;;;;;;;;5083086;28;20443;-78
2023/12/02 09:34:39;;;;;;;25.63;14.10;;;;;;;;;;5079873;28;20456;-78
2023/12/02 09:37:09;;;;;;;24.10;13.03;;;;;;;;;;5081826;28;20457;-80
2023/12/02 09:39:58;;;;;;;28.10;14.50;;;;;;;;;;5076717;28;20486;-79
2023/12/02 09:42:27;;;;;;;27.77;16.37;;;;;;;;;;5075710;28;20773;-78
2023/12/02 09:44:58;;;;;;;28.27;15.67;;;;;;;;;;5074450;28;20462;-78
2023/12/02 09:47:28;;;;;;;33.97;15.93;;;;;;;;;;5069543;28;20455;-77
2023/12/02 09:50:09;;;;;;;25.63;11.60;;;;;;;;;;5071292;28;20447;-78
2023/12/02 09:52:48;;;;;;;31.17;14.33;;;;;;;;;;5058797;28;20442;-78
2023/12/02 09:55:20;;;;;;;20.80;11.80;;;;;;;;;;5065930;28;20458;-78
2023/12/02 09:57:50;;;;;;;26.00;12.43;;;;;;;;;;5062832;28;20491;-81
2023/12/02 10:00:26;;;;;;;25.90;15.27;;;;;;;;;;5064292;28;20455;-78
2023/12/02 10:03:01;;;;;;;23.23;13.30;;;;;;;;;;5058231;28;20486;-79
2023/12/02 10:05:34;;;;;;;27.10;13.90;;;;;;;;;;5060357;28;20482;-78
2023/12/02 10:08:05;;;;;;;27.60;13.07;;;;;;;;;;5063225;28;20450;-78
2023/12/02 10:10:39;;;;;;;23.90;13.33;;;;;;;;;;5074397;28;20535;-78
2023/12/02 10:13:13;;;;;;;21.10;10.87;;;;;;;;;;5077176;28;20480;-78
2023/12/02 10:15:48;;;;;;;21.10;11.50;;;;;;;;;;5073041;28;20450;-77
2023/12/02 10:18:31;;;;;;;69.07;35.90;;;;;;;;;;5068671;28;20485;-77
2023/12/02 10:21:03;;;;;;;25.23;12.80;;;;;;;;;;5073115;28;20531;-79
2023/12/02 10:23:33;;;;;;;25.90;14.50;;;;;;;;;;5073838;28;20499;-78
2023/12/02 10:26:06;;;;;;;23.77;13.60;;;;;;;;;;5077976;28;20446;-78
2023/12/02 10:28:40;;;;;;;22.27;13.50;;;;;;;;;;5078345;28;20498;-76
2023/12/02 10:31:14;;;;;;;21.33;11.60;;;;;;;;;;5080448;28;20438;-77
2023/12/02 10:33:45;;;;;;;23.70;12.50;;;;;;;;;;5078827;28;20488;-77
2023/12/02 10:36:13;;;;;;;21.10;13.17;;;;;;;;;;5082786;28;20913;-78
2023/12/02 10:38:49;;;;;;;19.00;12.30;;;;;;;;;;5080209;28;20495;-79
2023/12/02 10:41:20;;;;;;;24.60;12.57;;;;;;;;;;5080016;28;20465;-78
2023/12/02 10:43:49;;;;;;;22.43;12.53;;;;;;;;;;5074861;28;20441;-78
2023/12/02 10:46:20;;;;;;;23.10;13.10;;;;;;;;;;5077346;28;21226;-78
2023/12/02 10:48:50;;;;;;;28.73;14.10;;;;;;;;;;5077213;28;20453;-78
2023/12/02 10:51:20;;;;;;;25.30;13.60;;;;;;;;;;5058297;28;20617;-79
2023/12/02 10:53:48;;;;;;;23.30;13.10;;;;;;;;;;5053372;28;20470;-79
2023/12/02 10:56:21;;;;;;;22.20;12.27;;;;;;;;;;5072123;28;20462;-78
2023/12/02 10:58:50;;;;;;;27.20;13.10;;;;;;;;;;5070451;28;21157;-77
2023/12/02 11:01:22;;;;;;;24.63;12.93;;;;;;;;;;5068234;28;20450;-77
2023/12/02 11:03:52;;;;;;;21.00;12.83;;;;;;;;;;5067681;28;20537;-77
2023/12/02 11:06:29;;;;;;;23.53;14.30;;;;;;;;;;5074729;28;20466;-78
2023/12/02 11:09:02;;;;;;;23.13;13.20;;;;;;;;;;5075274;28;20552;-78
2023/12/02 11:11:38;;;;;;;22.37;13.13;;;;;;;;;;5074954;28;21119;-78
2023/12/02 11:14:10;;;;;;;22.80;11.37;;;;;;;;;;5081916;28;20492;-79
2023/12/02 11:16:43;;;;;;;23.10;13.80;;;;;;;;;;5078721;28;20449;-79
2023/12/02 11:19:22;;;;;;;21.50;12.70;;;;;;;;;;5078250;28;20545;-77
2023/12/02 11:22:02;;;;;;;28.43;14.17;;;;;;;;;;5085705;28;20485;-77
2023/12/02 11:24:39;;;;;;;20.53;10.67;;;;;;;;;;5082274;28;20529;-77
2023/12/02 11:27:11;;;;;;;24.07;14.43;;;;;;;;;;5081620;28;20792;-77
2023/12/02 11:29:50;;;;;;;22.20;14.50;;;;;;;;;;5080766;28;20458;-79
2023/12/02 11:32:25;;;;;;;24.47;13.00;;;;;;;;;;5072932;28;20484;-77
2023/12/02 11:35:04;;;;;;;26.23;14.40;;;;;;;;;;5077744;28;20481;-77
2023/12/02 11:37:42;;;;;;;25.27;13.50;;;;;;;;;;5077849;28;20709;-78
2023/12/02 11:40:19;;;;;;;26.87;13.40;;;;;;;;;;5084081;28;21109;-79
2023/12/02 11:42:54;;;;;;;23.80;13.40;;;;;;;;;;5091454;28;20504;-77
2023/12/02 11:45:24;;;;;;;21.87;11.97;;;;;;;;;;5076544;28;21141;-80
2023/12/02 11:48:03;;;;;;;21.13;13.13;;;;;;;;;;5073825;28;20778;-76
2023/12/02 11:50:36;;;;;;;21.47;13.00;;;;;;;;;;5083449;28;20452;-77
2023/12/02 11:53:15;;;;;;;20.97;11.87;;;;;;;;;;5069518;28;20446;-77
2023/12/02 11:55:45;;;;;;;29.33;12.40;;;;;;;;;;5079573;28;20536;-77
2023/12/02 11:58:18;;;;;;;26.60;13.97;;;;;;;;;;5083823;28;20500;-78
2023/12/02 12:00:58;;;;;;;26.37;15.03;;;;;;;;;;5081015;28;20533;-77
2023/12/02 12:03:43;;;;;;;28.07;14.57;;;;;;;;;;5083402;28;20445;-81
2023/12/02 12:06:25;;;;;;;31.20;14.97;;;;;;;;;;5081572;28;20453;-78
2023/12/02 12:09:05;;;;;;;30.70;16.77;;;;;;;;;;5095950;28;20676;-79
2023/12/02 12:14:51;;;;;;;29.37;15.70;;;;;;;;;;5082489;28;20433;-77
2023/12/02 12:17:22;;;;;;;25.03;12.90;;;;;;;;;;5082415;28;20518;-79
2023/12/02 12:19:52;;;;;;;25.40;14.63;;;;;;;;;;5086851;28;20481;-77
2023/12/02 12:22:20;;;;;;;26.45;15.43;;;;;;;;;;5090485;28;20438;-79
2023/12/02 12:25:21;;;;;;;30.67;16.43;;;;;;;;;;5084573;28;20184;-78
2023/12/02 12:27:56;;;;;;;34.70;16.77;;;;;;;;;;5080156;28;20771;-79
2023/12/02 12:30:26;;;;;;;26.40;15.57;;;;;;;;;;5073534;28;20525;-80
2023/12/02 12:32:59;;;;;;;30.33;15.83;;;;;;;;;;5069982;28;20477;-80
2023/12/02 12:38:40;;;;;;;28.77;15.23;;;;;;;;;;5076094;28;20541;-80
2023/12/02 12:41:09;;;;;;;29.90;16.20;;;;;;;;;;5100545;28;21089;-79
2023/12/02 12:43:39;;;;;;;33.20;17.90;;;;;;;;;;5093675;28;20472;-80
2023/12/02 12:46:14;;;;;;;26.00;15.83;;;;;;;;;;5088416;28;20458;-79
2023/12/02 12:48:53;;;;;;;28.13;14.03;;;;;;;;;;5099052;28;20896;-79
2023/12/02 12:51:23;;;;;;;24.57;14.57;;;;;;;;;;5098976;28;20471;-78
2023/12/02 12:53:55;;;;;;;25.37;15.83;;;;;;;;;;5098542;28;20441;-79
2023/12/02 12:56:30;;;;;;;23.63;13.60;;;;;;;;;;5109758;28;20446;-79
2023/12/02 12:59:08;;;;;;;26.37;15.80;;;;;;;;;;5097112;28;20485;-78
2023/12/02 13:01:40;;;;;;;26.87;14.93;;;;;;;;;;5100266;28;20841;-81
2023/12/02 13:04:14;;;;;;;24.73;16.77;;;;;;;;;;5099474;28;20467;-78
2023/12/02 13:06:46;;;;;;;26.53;15.30;;;;;;;;;;5109808;28;20761;-80
2023/12/02 13:09:21;;;;;;;24.70;14.73;;;;;;;;;;5101288;28;20453;-78
2023/12/02 13:12:00;;;;;;;26.50;15.07;;;;;;;;;;5101037;28;20441;-79
2023/12/02 13:14:33;;;;;;;26.60;15.23;;;;;;;;;;5097581;28;20460;-79
2023/12/02 13:17:03;;;;;;;25.43;15.17;;;;;;;;;;5103596;28;20485;-79
2023/12/02 13:19:33;;;;;;;28.37;17.10;;;;;;;;;;5100437;28;20488;-78
2023/12/02 13:22:02;;;;;;;29.33;15.13;;;;;;;;;;5097287;28;20445;-79
2023/12/02 13:24:40;;;;;;;24.73;15.63;;;;;;;;;;5102824;28;20449;-79
2023/12/02 13:27:15;;;;;;;29.77;15.57;;;;;;;;;;5095320;28;20442;-78
2023/12/02 13:29:44;;;;;;;27.60;15.30;;;;;;;;;;5098290;28;20503;-80
2023/12/02 13:32:12;;;;;;;27.80;15.80;;;;;;;;;;5095902;28;20458;-78
2023/12/02 13:34:50;;;;;;;29.47;16.00;;;;;;;;;;5089194;28;20451;-79
2023/12/02 13:37:22;;;;;;;28.40;15.23;;;;;;;;;;5103724;28;20453;-77
2023/12/02 13:39:58;;;;;;;27.40;15.33;;;;;;;;;;5100246;28;20508;-79
2023/12/02 13:42:39;;;;;;;26.83;16.40;;;;;;;;;;5103246;28;20457;-80
2023/12/02 13:45:21;;;;;;;24.10;15.50;;;;;;;;;;5098058;28;20563;-78
2023/12/02 13:48:07;;;;;;;26.57;16.77;;;;;;;;;;5099370;28;20512;-79
2023/12/02 13:50:48;;;;;;;25.70;14.20;;;;;;;;;;5094618;28;20435;-80
2023/12/02 13:53:26;;;;;;;28.37;16.17;;;;;;;;;;5104548;28;20612;-78
2023/12/02 13:56:05;;;;;;;25.87;14.70;;;;;;;;;;5100936;28;20461;-78
2023/12/02 13:58:47;;;;;;;27.50;13.90;;;;;;;;;;5094724;28;20440;-78
2023/12/02 14:01:31;;;;;;;24.70;14.40;;;;;;;;;;5094868;28;20449;-79
2023/12/02 14:04:31;;;;;;;22.93;14.23;;;;;;;;;;5099666;28;20572;-80
2023/12/02 14:07:04;;;;;;;22.77;14.20;;;;;;;;;;5100338;28;20454;-80
2023/12/02 14:09:42;;;;;;;28.67;13.27;;;;;;;;;;5105697;28;20465;-79
2023/12/02 14:15:44;;;;;;;19.73;12.97;;;;;;;;;;5065170;28;20461;-79
2023/12/02 14:18:31;;;;;;;23.77;12.40;;;;;;;;;;5096374;28;20469;-79
2023/12/02 14:21:10;;;;;;;23.17;12.10;;;;;;;;;;5099477;28;20876;-79
2023/12/02 14:23:59;;;;;;;21.70;12.60;;;;;;;;;;5095932;28;20526;-79
2023/12/02 14:29:54;;;;;;;27.70;14.77;;;;;;;;;;5098641;28;20543;-80
2023/12/02 14:32:37;;;;;;;19.70;12.50;;;;;;;;;;5086337;28;20486;-79
2023/12/02 14:35:23;;;;;;;24.17;13.47;;;;;;;;;;5098877;28;20527;-80
2023/12/02 14:38:05;;;;;;;24.67;13.17;;;;;;;;;;5098626;28;20458;-78
2023/12/02 14:40:49;;;;;;;18.10;12.27;;;;;;;;;;5104170;28;20544;-79
2023/12/02 14:43:32;;;;;;;15.97;10.50;;;;;;;;;;5102136;28;20464;-79
2023/12/02 14:46:04;;;;;;;18.20;10.60;;;;;;;;;;5104016;28;20468;-78
2023/12/02 14:48:39;;;;;;;18.13;11.77;;;;;;;;;;5100990;28;20462;-80
2023/12/02 14:51:08;;;;;;;20.43;10.90;;;;;;;;;;5098251;28;20512;-78